createdAt,value
2023-03-17T00:00:47.195Z,6.00
2023-03-17T00:01:54.340Z,5.90
2023-03-17T00:02:59.780Z,6.00
2023-03-17T00:04:01.615Z,6.22
2023-03-17T00:05:14.236Z,5.38
2023-03-17T00:06:25.705Z,6.05
2023-03-17T00:07:27.612Z,5.85
2023-03-17T00:08:33.318Z,6.57
2023-03-17T00:09:34.910Z,6.63
2023-03-17T00:10:36.995Z,6.22
2023-03-17T00:11:38.543Z,5.97
2023-03-17T00:12:40.327Z,6.35
2023-03-17T00:13:43.657Z,5.47
2023-03-17T00:14:46.880Z,5.20
2023-03-17T00:15:53.244Z,5.75
2023-03-17T00:16:55.096Z,5.60
2023-03-17T00:17:57.328Z,5.45
2023-03-17T00:18:58.952Z,5.35
2023-03-17T00:20:00.565Z,5.55
2023-03-17T00:21:02.289Z,5.75
2023-03-17T00:22:06.671Z,6.28
2023-03-17T00:23:17.966Z,6.18
2023-03-17T00:24:19.586Z,5.40
2023-03-17T00:25:23.288Z,5.57
2023-03-17T00:26:25.617Z,5.70
2023-03-17T00:27:28.366Z,6.13
2023-03-17T00:28:29.905Z,5.50
2023-03-17T00:29:31.525Z,5.28
2023-03-17T00:30:33.050Z,4.85
2023-03-17T00:31:34.837Z,5.60
2023-03-17T00:32:37.674Z,4.30
2023-03-17T00:33:39.937Z,5.85
2023-03-17T00:34:41.697Z,5.00
2023-03-17T00:35:45.589Z,4.85
2023-03-17T00:36:51.101Z,4.80
2023-03-17T00:37:54.191Z,4.85
2023-03-17T00:38:56.264Z,5.00
2023-03-17T00:39:57.818Z,4.47
2023-03-17T00:40:59.519Z,4.70
2023-03-17T00:42:01.072Z,4.72
2023-03-17T00:43:05.630Z,4.97
2023-03-17T00:44:07.296Z,5.13
2023-03-17T00:45:10.253Z,4.80
2023-03-17T00:47:21.828Z,4.80
2023-03-17T00:48:23.431Z,5.43
2023-03-17T00:49:25.808Z,4.57
2023-03-17T00:50:29.305Z,5.40
2023-03-17T00:51:31.105Z,4.78
2023-03-17T00:52:33.517Z,4.95
2023-03-17T00:53:35.442Z,5.20
2023-03-17T00:54:37.086Z,6.15
2023-03-17T00:55:38.701Z,5.07
2023-03-17T00:56:41.783Z,4.70
2023-03-17T00:57:43.783Z,5.00
2023-03-17T00:58:45.877Z,5.07
2023-03-17T00:59:47.656Z,4.45
2023-03-17T01:00:49.334Z,5.55
2023-03-17T01:01:51.475Z,4.95
2023-03-17T01:02:55.005Z,5.43
2023-03-17T01:03:56.715Z,5.15
2023-03-17T01:05:05.786Z,4.93
2023-03-17T01:06:11.765Z,5.15
2023-03-17T01:07:14.218Z,4.43
2023-03-17T01:08:16.973Z,4.68
2023-03-17T01:09:20.479Z,4.68
2023-03-17T01:10:28.373Z,4.45
2023-03-17T01:11:30.077Z,4.38
2023-03-17T01:12:31.640Z,3.90
2023-03-17T01:13:34.339Z,4.85
2023-03-17T01:14:37.859Z,4.85
2023-03-17T01:15:42.842Z,4.93
2023-03-17T01:16:44.996Z,4.85
2023-03-17T01:17:46.771Z,4.72
2023-03-17T01:18:48.521Z,5.57
2023-03-17T01:19:50.154Z,4.63
2023-03-17T01:20:53.360Z,4.30
2023-03-17T01:21:54.954Z,4.78
2023-03-17T01:22:57.285Z,4.35
2023-03-17T01:23:59.095Z,4.63
2023-03-17T01:25:00.699Z,4.15
2023-03-17T01:26:02.325Z,4.60
2023-03-17T01:27:05.094Z,5.10
2023-03-17T01:28:07.521Z,4.53
2023-03-17T01:29:09.185Z,4.70
2023-03-17T01:30:19.844Z,4.93
2023-03-17T01:31:23.416Z,4.45
2023-03-17T01:32:25.840Z,4.32
2023-03-17T01:33:27.452Z,4.55
2023-03-17T01:34:29.296Z,4.82
2023-03-17T01:35:31.608Z,3.92
2023-03-17T01:36:34.339Z,4.50
2023-03-17T01:37:36.567Z,4.22
2023-03-17T01:38:38.810Z,5.15
2023-03-17T01:39:40.946Z,4.70
2023-03-17T01:40:46.124Z,5.03
2023-03-17T01:41:47.710Z,4.60
2023-03-17T01:42:58.724Z,4.82
2023-03-17T01:44:00.415Z,4.82
2023-03-17T01:45:04.053Z,4.32
2023-03-17T01:46:16.260Z,4.72
2023-03-17T01:47:18.831Z,4.50
2023-03-17T01:48:20.512Z,4.95
2023-03-17T01:49:30.370Z,4.20
2023-03-17T01:50:32.166Z,5.35
2023-03-17T01:52:01.211Z,4.68
2023-03-17T01:53:03.477Z,4.15
2023-03-17T01:54:09.211Z,5.15
2023-03-17T01:55:16.223Z,5.18
2023-03-17T01:56:18.167Z,4.40
2023-03-17T01:57:56.677Z,4.60
2023-03-17T01:59:01.253Z,4.15
2023-03-17T02:00:08.138Z,4.57
2023-03-17T02:01:10.837Z,4.13
2023-03-17T02:02:18.071Z,4.00
2023-03-17T02:03:19.765Z,4.80
2023-03-17T02:04:22.071Z,4.10
2023-03-17T02:05:27.227Z,4.32
2023-03-17T02:06:29.692Z,4.32
2023-03-17T02:07:31.535Z,3.40
2023-03-17T02:08:33.145Z,3.63
2023-03-17T02:09:35.405Z,4.30
2023-03-17T02:10:37.667Z,3.72
2023-03-17T02:11:39.290Z,4.30
2023-03-17T02:12:43.886Z,3.88
2023-03-17T02:13:45.512Z,4.22
2023-03-17T02:14:47.084Z,4.90
2023-03-17T02:15:51.294Z,4.25
2023-03-17T02:16:53.905Z,4.45
2023-03-17T02:17:55.491Z,5.18
2023-03-17T02:18:57.477Z,4.70
2023-03-17T02:20:15.652Z,4.30
2023-03-17T02:21:41.061Z,4.30
2023-03-17T02:22:49.648Z,4.18
2023-03-17T02:23:51.551Z,4.47
2023-03-17T02:24:56.729Z,4.20
2023-03-17T02:25:58.365Z,4.55
2023-03-17T02:27:07.611Z,3.90
2023-03-17T02:28:16.324Z,4.35
2023-03-17T02:29:19.410Z,3.90
2023-03-17T02:30:23.862Z,4.80
2023-03-17T02:31:26.980Z,3.80
2023-03-17T02:32:28.876Z,4.07
2023-03-17T02:33:30.674Z,5.05
2023-03-17T02:34:33.452Z,3.95
2023-03-17T02:35:35.517Z,4.05
2023-03-17T02:36:37.725Z,4.03
2023-03-17T02:37:39.412Z,4.35
2023-03-17T02:38:41.271Z,4.07
2023-03-17T02:39:43.130Z,3.58
2023-03-17T02:40:44.784Z,4.10
2023-03-17T02:41:46.376Z,4.57
2023-03-17T02:42:48.119Z,4.30
2023-03-17T02:43:49.843Z,4.00
2023-03-17T02:44:51.442Z,3.88
2023-03-17T02:45:53.102Z,4.32
2023-03-17T02:46:54.790Z,4.60
2023-03-17T02:47:57.525Z,4.18
2023-03-17T02:48:59.341Z,3.95
2023-03-17T02:50:01.180Z,3.72
2023-03-17T02:51:03.541Z,4.80
2023-03-17T02:52:05.708Z,3.83
2023-03-17T02:53:08.355Z,3.63
2023-03-17T02:54:09.993Z,4.47
2023-03-17T02:55:11.626Z,4.10
2023-03-17T02:56:13.285Z,4.25
2023-03-17T02:57:14.826Z,4.55
2023-03-17T02:58:16.718Z,4.32
2023-03-17T02:59:18.383Z,4.60
2023-03-17T03:00:21.676Z,4.03
2023-03-17T03:01:23.439Z,4.47
2023-03-17T03:02:25.061Z,3.95
2023-03-17T03:03:26.751Z,4.07
2023-03-17T03:04:28.444Z,4.25
2023-03-17T03:05:30.108Z,3.75
2023-03-17T03:06:31.952Z,4.38
2023-03-17T03:07:33.644Z,3.83
2023-03-17T03:08:35.834Z,3.97
2023-03-17T03:09:37.471Z,3.42
2023-03-17T03:10:39.094Z,3.53
2023-03-17T03:11:41.559Z,3.95
2023-03-17T03:12:43.161Z,4.05
2023-03-17T03:13:45.017Z,4.18
2023-03-17T03:14:46.600Z,4.25
2023-03-17T03:15:48.263Z,4.07
2023-03-17T03:16:49.980Z,4.00
2023-03-17T03:17:51.713Z,4.30
2023-03-17T03:18:53.358Z,4.80
2023-03-17T03:19:55.540Z,3.72
2023-03-17T03:20:57.146Z,4.38
2023-03-17T03:21:58.768Z,3.85
2023-03-17T03:23:00.696Z,3.53
2023-03-17T03:24:02.362Z,3.67
2023-03-17T03:25:04.376Z,3.75
2023-03-17T03:26:06.097Z,4.22
2023-03-17T03:27:07.730Z,4.55
2023-03-17T03:28:10.165Z,3.78
2023-03-17T03:29:11.875Z,3.95
2023-03-17T03:30:13.806Z,3.97
2023-03-17T03:31:16.295Z,3.85
2023-03-17T03:32:17.928Z,3.67
2023-03-17T03:33:19.632Z,4.10
2023-03-17T03:34:21.249Z,4.07
2023-03-17T03:35:22.886Z,3.70
2023-03-17T03:36:25.448Z,3.55
2023-03-17T03:37:27.228Z,3.88
2023-03-17T03:38:28.849Z,3.80
2023-03-17T03:39:30.402Z,4.07
2023-03-17T03:40:32.404Z,3.90
2023-03-17T03:41:34.276Z,3.60
2023-03-17T03:42:35.885Z,3.85
2023-03-17T03:43:37.848Z,3.67
2023-03-17T03:44:39.490Z,4.10
2023-03-17T03:45:41.559Z,4.10
2023-03-17T03:46:43.302Z,3.70
2023-03-17T03:47:45.046Z,3.70
2023-03-17T03:48:46.683Z,3.40
2023-03-17T03:49:48.288Z,3.72
2023-03-17T03:50:50.156Z,3.75
2023-03-17T03:51:51.752Z,4.00
2023-03-17T03:52:53.392Z,3.63
2023-03-17T03:53:54.935Z,3.60
2023-03-17T03:54:56.588Z,3.83
2023-03-17T03:55:58.303Z,3.83
2023-03-17T03:56:59.987Z,3.55
2023-03-17T03:58:01.581Z,4.65
2023-03-17T03:59:03.599Z,4.03
2023-03-17T04:00:07.557Z,3.70
2023-03-17T04:01:10.055Z,3.00
2023-03-17T04:02:11.739Z,3.70
2023-03-17T04:03:14.333Z,3.58
2023-03-17T04:04:16.377Z,3.35
2023-03-17T04:05:18.738Z,3.67
2023-03-17T04:06:20.337Z,3.45
2023-03-17T04:07:21.931Z,2.95
2023-03-17T04:08:23.559Z,3.90
2023-03-17T04:09:25.342Z,3.55
2023-03-17T04:10:27.137Z,4.38
2023-03-17T04:11:28.733Z,3.42
2023-03-17T04:12:30.369Z,3.30
2023-03-17T04:13:31.975Z,3.72
2023-03-17T04:14:34.166Z,3.35
2023-03-17T04:15:35.983Z,3.42
2023-03-17T04:16:37.572Z,3.60
2023-03-17T04:17:39.247Z,3.35
2023-03-17T04:18:41.561Z,4.03
2023-03-17T04:19:43.165Z,3.42
2023-03-17T04:20:44.764Z,4.35
2023-03-17T04:21:46.369Z,3.40
2023-03-17T04:22:47.985Z,3.88
2023-03-17T04:23:49.688Z,3.20
2023-03-17T04:24:51.480Z,3.58
2023-03-17T04:25:53.506Z,3.97
2023-03-17T04:26:55.219Z,3.95
2023-03-17T04:27:56.985Z,4.00
2023-03-17T04:28:59.087Z,4.10
2023-03-17T04:30:01.854Z,3.97
2023-03-17T04:31:03.484Z,3.85
2023-03-17T04:32:05.316Z,3.50
2023-03-17T04:33:07.325Z,3.83
2023-03-17T04:34:15.435Z,3.67
2023-03-17T04:35:20.846Z,3.70
2023-03-17T04:36:24.429Z,3.05
2023-03-17T04:37:26.355Z,4.07
2023-03-17T04:38:28.004Z,3.75
2023-03-17T04:39:29.558Z,3.83
2023-03-17T04:40:31.835Z,3.65
2023-03-17T04:41:33.764Z,3.15
2023-03-17T04:42:35.886Z,3.42
2023-03-17T04:43:37.515Z,3.45
2023-03-17T04:44:39.410Z,4.35
2023-03-17T04:45:41.213Z,3.70
2023-03-17T04:46:42.958Z,4.28
2023-03-17T04:47:46.314Z,3.80
2023-03-17T04:48:47.982Z,3.53
2023-03-17T04:49:49.628Z,3.53
2023-03-17T04:50:51.555Z,3.30
2023-03-17T04:51:53.395Z,3.97
2023-03-17T04:52:55.300Z,3.20
2023-03-17T04:53:57.017Z,3.97
2023-03-17T04:54:58.612Z,2.80
2023-03-17T04:56:00.268Z,3.47
2023-03-17T04:57:01.902Z,3.35
2023-03-17T04:58:03.446Z,4.00
2023-03-17T04:59:05.317Z,3.58
2023-03-17T05:00:08.459Z,3.53
2023-03-17T05:01:10.171Z,3.53
2023-03-17T05:02:11.771Z,4.00
2023-03-17T05:03:25.970Z,4.13
2023-03-17T05:05:34.662Z,3.65
2023-03-17T05:06:37.314Z,3.50
2023-03-17T05:07:39.060Z,3.30
2023-03-17T05:08:40.695Z,3.78
2023-03-17T05:09:42.638Z,3.60
2023-03-17T05:10:44.356Z,3.80
2023-03-17T05:11:46.035Z,3.30
2023-03-17T05:12:47.846Z,4.18
2023-03-17T05:13:49.376Z,3.10
2023-03-17T05:14:50.962Z,3.67
2023-03-17T05:15:54.788Z,3.53
2023-03-17T05:16:56.483Z,3.05
2023-03-17T05:17:58.020Z,3.50
2023-03-17T05:18:59.628Z,3.33
2023-03-17T05:20:01.360Z,3.33
2023-03-17T05:21:03.628Z,3.85
2023-03-17T05:22:05.884Z,4.00
2023-03-17T05:23:08.090Z,3.50
2023-03-17T05:24:09.889Z,3.30
2023-03-17T05:25:11.461Z,3.55
2023-03-17T05:26:13.151Z,3.55
2023-03-17T05:27:15.637Z,4.20
2023-03-17T05:28:17.248Z,3.90
2023-03-17T05:29:18.949Z,3.72
2023-03-17T05:30:20.671Z,4.10
2023-03-17T05:31:22.371Z,3.85
2023-03-17T05:32:24.673Z,3.83
2023-03-17T05:33:26.494Z,3.42
2023-03-17T05:34:28.100Z,3.85
2023-03-17T05:35:29.966Z,3.55
2023-03-17T05:36:33.563Z,4.70
2023-03-17T05:37:35.187Z,4.20
2023-03-17T05:38:37.148Z,3.83
2023-03-17T05:39:38.746Z,3.92
2023-03-17T05:40:40.403Z,3.80
2023-03-17T05:41:42.481Z,3.72
2023-03-17T05:42:44.125Z,3.67
2023-03-17T05:43:46.198Z,3.65
2023-03-17T05:44:47.791Z,3.13
2023-03-17T05:45:50.700Z,3.35
2023-03-17T05:46:52.399Z,3.55
2023-03-17T05:47:54.049Z,3.85
2023-03-17T05:48:55.901Z,3.45
2023-03-17T05:49:57.637Z,3.42
2023-03-17T05:50:59.290Z,2.90
2023-03-17T05:52:00.847Z,3.55
2023-03-17T05:53:03.361Z,3.00
2023-03-17T05:54:05.186Z,3.10
2023-03-17T05:55:07.939Z,3.03
2023-03-17T05:56:09.472Z,2.85
2023-03-17T05:57:11.199Z,3.63
2023-03-17T05:58:12.961Z,2.75
2023-03-17T05:59:16.903Z,3.17
2023-03-17T06:00:19.195Z,2.92
2023-03-17T06:01:21.131Z,2.92
2023-03-17T06:02:23.114Z,2.90
2023-03-17T06:03:24.799Z,3.20
2023-03-17T06:04:26.565Z,3.47
2023-03-17T06:05:28.407Z,2.90
2023-03-17T06:06:30.136Z,2.70
2023-03-17T06:07:44.647Z,2.50
2023-03-17T06:08:50.291Z,3.10
2023-03-17T06:09:51.930Z,2.90
2023-03-17T06:10:53.612Z,3.30
2023-03-17T06:11:55.234Z,2.53
2023-03-17T06:12:57.202Z,3.38
2023-03-17T06:13:58.843Z,2.72
2023-03-17T06:15:00.526Z,2.90
2023-03-17T06:16:03.017Z,2.65
2023-03-17T06:17:05.316Z,3.00
2023-03-17T06:18:07.494Z,2.85
2023-03-17T06:19:09.157Z,3.50
2023-03-17T06:20:11.856Z,2.67
2023-03-17T06:21:13.860Z,3.22
2023-03-17T06:22:15.447Z,2.88
2023-03-17T06:23:17.411Z,2.92
2023-03-17T06:24:19.026Z,2.83
2023-03-17T06:25:20.648Z,3.42
2023-03-17T06:26:22.291Z,2.85
2023-03-17T06:27:23.906Z,2.55
2023-03-17T06:28:25.845Z,2.50
2023-03-17T06:29:28.687Z,4.40
2023-03-17T06:30:31.416Z,2.72
2023-03-17T06:31:33.079Z,3.50
2023-03-17T06:32:35.304Z,2.90
2023-03-17T06:33:36.920Z,3.03
2023-03-17T06:34:38.528Z,3.22
2023-03-17T06:35:40.620Z,2.40
2023-03-17T06:36:42.329Z,2.72
2023-03-17T06:37:43.974Z,2.97
2023-03-17T06:38:46.271Z,3.33
2023-03-17T06:39:48.445Z,3.42
2023-03-17T06:40:50.670Z,2.85
2023-03-17T06:41:52.272Z,3.13
2023-03-17T06:42:53.828Z,3.88
2023-03-17T06:43:55.449Z,3.25
2023-03-17T06:44:57.069Z,3.58
2023-03-17T06:45:58.881Z,3.10
2023-03-17T06:47:00.477Z,3.50
2023-03-17T06:48:02.435Z,3.30
2023-03-17T06:49:04.063Z,2.25
2023-03-17T06:50:10.022Z,3.05
2023-03-17T06:51:11.677Z,3.00
2023-03-17T06:52:14.168Z,3.03
2023-03-17T06:53:16.395Z,2.95
2023-03-17T06:54:18.343Z,2.95
2023-03-17T06:55:21.373Z,3.38
2023-03-17T06:56:29.926Z,3.80
2023-03-17T06:57:32.502Z,3.53
2023-03-17T06:58:34.131Z,3.38
2023-03-17T06:59:36.058Z,3.58
2023-03-17T07:00:40.321Z,3.30
2023-03-17T07:01:41.902Z,3.60
2023-03-17T07:02:43.543Z,3.58
2023-03-17T07:03:45.402Z,3.60
2023-03-17T07:04:47.030Z,3.13
2023-03-17T07:05:49.059Z,2.75
2023-03-17T07:06:51.675Z,3.70
2023-03-17T07:07:53.264Z,3.20
2023-03-17T07:08:54.855Z,3.88
2023-03-17T07:09:56.386Z,2.85
2023-03-17T07:10:59.080Z,3.20
2023-03-17T07:12:05.047Z,3.30
2023-03-17T07:13:08.547Z,3.05
2023-03-17T07:14:10.192Z,3.10
2023-03-17T07:15:12.680Z,2.67
2023-03-17T07:16:15.401Z,3.15
2023-03-17T07:18:19.374Z,3.00
2023-03-17T07:19:20.987Z,3.00
2023-03-17T07:20:22.893Z,2.47
2023-03-17T07:21:24.527Z,3.75
2023-03-17T07:22:26.413Z,3.20
2023-03-17T07:23:29.556Z,3.65
2023-03-17T07:24:31.562Z,3.40
2023-03-17T07:25:33.659Z,2.40
2023-03-17T07:26:35.543Z,3.17
2023-03-17T07:27:37.213Z,2.83
2023-03-17T07:28:40.311Z,3.40
2023-03-17T07:29:42.162Z,2.63
2023-03-17T07:30:46.969Z,3.38
2023-03-17T07:31:49.557Z,3.08
2023-03-17T07:32:51.310Z,3.38
2023-03-17T07:33:52.958Z,3.35
2023-03-17T07:34:54.815Z,3.20
2023-03-17T07:35:56.622Z,3.78
2023-03-17T07:36:58.306Z,3.63
2023-03-17T07:38:00.103Z,3.50
2023-03-17T07:39:01.969Z,3.10
2023-03-17T07:40:04.529Z,2.78
2023-03-17T07:41:09.954Z,2.45
2023-03-17T07:42:15.362Z,3.67
2023-03-17T07:43:17.845Z,3.38
2023-03-17T07:44:19.851Z,3.00
2023-03-17T07:45:21.375Z,3.05
2023-03-17T07:46:23.303Z,3.20
2023-03-17T07:47:24.909Z,4.45
2023-03-17T07:48:26.899Z,3.33
2023-03-17T07:49:40.740Z,3.58
2023-03-17T07:50:44.450Z,3.40
2023-03-17T07:51:46.778Z,3.00
2023-03-17T07:52:48.388Z,2.85
2023-03-17T07:53:53.252Z,2.95
2023-03-17T07:54:56.064Z,2.80
2023-03-17T07:55:57.802Z,2.63
2023-03-17T07:56:59.400Z,2.47
2023-03-17T07:58:01.187Z,3.05
2023-03-17T07:59:02.929Z,2.75
2023-03-17T08:00:10.251Z,3.25
2023-03-17T08:01:11.900Z,3.08
2023-03-17T08:02:16.433Z,3.15
2023-03-17T08:03:19.534Z,3.00
2023-03-17T08:04:21.310Z,2.60
2023-03-17T08:05:22.918Z,2.88
2023-03-17T08:06:27.826Z,2.92
2023-03-17T08:07:31.715Z,2.60
2023-03-17T08:08:33.652Z,2.83
2023-03-17T08:09:35.435Z,2.63
2023-03-17T08:10:37.026Z,3.33
2023-03-17T08:11:39.109Z,2.65
2023-03-17T08:12:41.975Z,2.40
2023-03-17T08:14:45.639Z,2.20
2023-03-17T08:15:47.222Z,2.58
2023-03-17T08:16:48.867Z,2.10
2023-03-17T08:17:50.511Z,2.03
2023-03-17T08:18:52.191Z,2.97
2023-03-17T08:19:54.934Z,2.55
2023-03-17T08:20:56.498Z,2.17
2023-03-17T08:21:58.297Z,2.10
2023-03-17T08:23:00.777Z,2.03
2023-03-17T08:24:04.600Z,2.45
2023-03-17T08:25:06.381Z,2.13
2023-03-17T08:26:08.540Z,2.03
2023-03-17T08:27:10.266Z,2.40
2023-03-17T08:28:11.851Z,2.45
2023-03-17T08:29:13.480Z,2.80
2023-03-17T08:30:16.631Z,3.00
2023-03-17T08:31:20.950Z,2.33
2023-03-17T08:32:22.718Z,2.63
2023-03-17T08:33:24.264Z,2.83
2023-03-17T08:34:26.474Z,2.58
2023-03-17T08:35:28.215Z,2.22
2023-03-17T08:36:30.762Z,2.22
2023-03-17T08:37:32.630Z,2.38
2023-03-17T08:38:35.236Z,2.40
2023-03-17T08:39:39.737Z,2.38
2023-03-17T08:40:41.397Z,2.30
2023-03-17T08:41:43.640Z,2.40
2023-03-17T08:42:47.192Z,2.70
2023-03-17T08:43:48.947Z,2.20
2023-03-17T08:44:50.631Z,2.28
2023-03-17T08:45:52.324Z,2.25
2023-03-17T08:46:53.970Z,2.22
2023-03-17T08:47:56.015Z,2.47
2023-03-17T08:48:59.496Z,2.33
2023-03-17T08:50:01.213Z,2.25
2023-03-17T08:51:04.691Z,2.45
2023-03-17T08:52:06.426Z,2.58
2023-03-17T08:53:08.562Z,3.33
2023-03-17T08:54:11.094Z,2.78
2023-03-17T08:55:14.621Z,2.92
2023-03-17T08:56:16.988Z,3.15
2023-03-17T08:57:19.591Z,3.28
2023-03-17T08:58:21.682Z,3.55
2023-03-17T08:59:23.319Z,2.70
2023-03-17T09:00:24.939Z,3.47
2023-03-17T09:01:27.634Z,3.35
2023-03-17T09:02:29.668Z,3.42
2023-03-17T09:03:31.394Z,3.35
2023-03-17T09:04:34.081Z,3.83
2023-03-17T09:05:38.475Z,3.67
2023-03-17T09:06:48.931Z,3.80
2023-03-17T09:07:57.270Z,3.85
2023-03-17T09:09:00.253Z,3.22
2023-03-17T09:10:02.038Z,3.15
2023-03-17T09:11:05.488Z,3.50
2023-03-17T09:12:07.613Z,2.58
2023-03-17T09:13:09.161Z,3.05
2023-03-17T09:14:11.464Z,3.40
2023-03-17T09:15:13.126Z,3.53
2023-03-17T09:16:16.268Z,3.55
2023-03-17T09:17:18.120Z,3.60
2023-03-17T09:18:22.054Z,3.50
2023-03-17T09:19:23.928Z,3.42
2023-03-17T09:20:25.891Z,3.17
2023-03-17T09:21:28.059Z,3.10
2023-03-17T09:22:29.728Z,3.78
2023-03-17T09:23:31.949Z,3.63
2023-03-17T09:24:33.699Z,3.67
2023-03-17T09:25:39.544Z,3.92
2023-03-17T09:26:41.761Z,2.85
2023-03-17T09:27:43.992Z,3.53
2023-03-17T09:28:45.669Z,2.90
2023-03-17T09:29:47.326Z,3.22
2023-03-17T09:30:49.718Z,4.07
2023-03-17T09:31:51.566Z,3.40
2023-03-17T09:32:53.824Z,3.70
2023-03-17T09:33:55.511Z,3.35
2023-03-17T09:34:57.765Z,4.63
2023-03-17T09:35:59.390Z,4.32
2023-03-17T09:37:01.118Z,3.95
2023-03-17T09:38:02.767Z,4.97
2023-03-17T09:39:04.301Z,3.20
2023-03-17T09:40:09.147Z,3.78
2023-03-17T09:41:16.479Z,4.25
2023-03-17T09:42:33.423Z,4.03
2023-03-17T09:43:41.464Z,3.58
2023-03-17T09:45:03.605Z,4.10
2023-03-17T09:46:27.201Z,3.92
2023-03-17T09:47:36.734Z,3.75
2023-03-17T09:49:03.816Z,4.07
2023-03-17T09:50:13.169Z,4.18
2023-03-17T09:51:19.009Z,3.13
2023-03-17T09:52:29.060Z,4.05
2023-03-17T09:53:36.634Z,4.35
2023-03-17T09:54:39.236Z,4.05
2023-03-17T09:55:41.698Z,4.00
2023-03-17T09:56:48.435Z,4.50
2023-03-17T09:57:54.285Z,3.67
2023-03-17T09:59:04.058Z,3.72
2023-03-17T10:00:19.089Z,4.10
2023-03-17T10:01:20.950Z,4.43
2023-03-17T10:02:30.151Z,4.93
2023-03-17T10:03:33.001Z,4.20
2023-03-17T10:05:36.452Z,3.55
2023-03-17T10:06:42.689Z,4.40
2023-03-17T10:07:47.180Z,3.80
2023-03-17T10:09:00.732Z,4.60
2023-03-17T10:10:05.596Z,4.43
2023-03-17T10:11:57.759Z,3.67
2023-03-17T10:13:22.795Z,3.72
2023-03-17T10:14:27.315Z,4.18
2023-03-17T10:15:38.922Z,4.47
2023-03-17T10:16:54.751Z,5.07
2023-03-17T10:17:56.829Z,3.95
2023-03-17T10:19:19.535Z,5.40
2023-03-17T10:20:36.524Z,4.72
2023-03-17T10:21:48.314Z,5.18
2023-03-17T10:23:03.481Z,4.68
2023-03-17T10:25:12.827Z,4.82
2023-03-17T10:26:34.757Z,4.57
2023-03-17T10:27:38.277Z,5.20
2023-03-17T10:28:40.270Z,5.07
2023-03-17T10:29:42.231Z,4.45
2023-03-17T10:30:44.039Z,4.68
2023-03-17T10:31:45.626Z,5.28
2023-03-17T10:32:48.408Z,4.88
2023-03-17T10:33:53.467Z,5.07
2023-03-17T10:34:55.812Z,4.60
2023-03-17T10:36:06.849Z,4.55
2023-03-17T10:37:19.177Z,5.03
2023-03-17T10:38:22.144Z,4.82
2023-03-17T10:40:31.212Z,5.30
2023-03-17T10:41:36.453Z,4.43
2023-03-17T10:42:49.241Z,4.80
2023-03-17T10:43:51.908Z,5.97
2023-03-17T10:44:55.283Z,5.35
2023-03-17T10:46:02.775Z,5.40
2023-03-17T10:47:04.427Z,5.18
2023-03-17T10:48:09.668Z,5.50
2023-03-17T10:49:17.508Z,5.97
2023-03-17T10:50:22.977Z,5.80
2023-03-17T10:51:34.036Z,5.35
2023-03-17T10:52:40.903Z,5.50
2023-03-17T10:53:45.365Z,5.20
2023-03-17T10:54:53.511Z,5.70
2023-03-17T10:56:09.845Z,5.65
2023-03-17T10:57:14.117Z,6.18
2023-03-17T10:58:15.672Z,5.78
2023-03-17T10:59:25.607Z,6.07
2023-03-17T11:00:30.135Z,5.60
2023-03-17T11:01:47.362Z,6.13
2023-03-17T11:02:59.436Z,6.30
2023-03-17T11:04:02.790Z,5.60
2023-03-17T11:05:09.634Z,5.70
2023-03-17T11:06:14.438Z,5.72
2023-03-17T11:07:22.036Z,6.45
2023-03-17T11:08:24.189Z,6.00
2023-03-17T11:09:28.194Z,4.85
2023-03-17T11:10:37.830Z,5.85
2023-03-17T11:11:59.067Z,6.38
2023-03-17T11:14:04.168Z,5.00
2023-03-17T11:15:10.700Z,6.47
2023-03-17T11:16:25.136Z,5.05
2023-03-17T11:17:43.110Z,5.65
2023-03-17T11:18:46.003Z,6.22
2023-03-17T11:20:58.760Z,5.60
2023-03-17T11:22:14.224Z,5.40
2023-03-17T11:23:22.570Z,5.82
2023-03-17T11:24:33.466Z,5.85
2023-03-17T11:25:41.914Z,5.03
2023-03-17T11:26:53.245Z,5.97
2023-03-17T11:28:20.722Z,6.35
2023-03-17T11:30:00.546Z,5.63
2023-03-17T11:31:24.945Z,5.93
2023-03-17T11:32:42.178Z,6.43
2023-03-17T11:34:02.284Z,5.22
2023-03-17T11:35:23.348Z,6.97
2023-03-17T11:36:43.592Z,6.35
2023-03-17T11:37:51.179Z,5.85
2023-03-17T11:39:00.857Z,5.80
2023-03-17T11:40:19.565Z,5.85
2023-03-17T11:41:46.148Z,5.70
2023-03-17T11:43:22.356Z,6.72
2023-03-17T11:44:32.970Z,5.68
2023-03-17T11:45:54.341Z,6.25
2023-03-17T11:47:05.192Z,6.15
2023-03-17T11:48:15.614Z,6.70
2023-03-17T11:49:24.863Z,5.82
2023-03-17T11:50:30.100Z,6.32
2023-03-17T11:52:11.087Z,7.00
2023-03-17T11:53:45.980Z,6.78
2023-03-17T11:55:00.063Z,6.35
2023-03-17T11:56:06.179Z,5.93
2023-03-17T11:57:23.551Z,6.05
2023-03-17T11:58:44.262Z,6.97
2023-03-17T12:00:21.205Z,6.53
2023-03-17T12:01:32.563Z,6.50
2023-03-17T12:02:40.703Z,7.10
2023-03-17T12:03:48.784Z,6.47
2023-03-17T12:05:15.477Z,7.32
2023-03-17T12:06:23.441Z,6.47
2023-03-17T12:07:42.454Z,6.78
2023-03-17T12:08:50.878Z,6.93
2023-03-17T12:10:22.850Z,7.50
2023-03-17T12:11:29.096Z,7.03
2023-03-17T12:12:38.260Z,6.90
2023-03-17T12:13:55.174Z,6.70
2023-03-17T12:15:00.428Z,6.50
2023-03-17T12:16:27.304Z,6.75
2023-03-17T12:17:36.053Z,7.22
2023-03-17T12:19:24.583Z,8.43
2023-03-17T12:20:45.124Z,5.95
2023-03-17T12:21:55.768Z,6.40
2023-03-17T12:23:18.979Z,6.60
2023-03-17T12:24:33.981Z,6.97
2023-03-17T12:25:54.572Z,6.80
2023-03-17T12:26:59.498Z,7.03
2023-03-17T12:28:04.191Z,7.70
2023-03-17T12:29:15.972Z,7.07
2023-03-17T12:30:25.160Z,7.05
2023-03-17T12:31:35.895Z,6.45
2023-03-17T12:32:52.874Z,7.50
2023-03-17T12:34:00.624Z,6.97
2023-03-17T12:35:24.565Z,5.68
2023-03-17T12:36:27.142Z,6.03
2023-03-17T12:37:30.255Z,7.70
2023-03-17T12:38:36.114Z,6.90
2023-03-17T12:39:40.633Z,6.88
2023-03-17T12:41:02.438Z,6.85
2023-03-17T12:42:37.720Z,6.65
2023-03-17T12:44:13.098Z,7.43
2023-03-17T12:45:29.572Z,6.80
2023-03-17T12:47:08.282Z,6.03
2023-03-17T12:48:27.387Z,7.35
2023-03-17T12:50:05.920Z,5.93
2023-03-17T12:51:22.694Z,6.45
2023-03-17T12:53:03.204Z,6.15
2023-03-17T12:54:05.159Z,6.13
2023-03-17T12:55:14.357Z,5.93
2023-03-17T12:56:21.595Z,6.28
2023-03-17T12:57:29.873Z,7.00
2023-03-17T12:58:52.965Z,6.53
2023-03-17T13:00:15.452Z,6.53
2023-03-17T13:01:27.365Z,7.45
2023-03-17T13:02:28.898Z,6.43
2023-03-17T13:03:33.208Z,6.68
2023-03-17T13:04:36.665Z,7.00
2023-03-17T13:05:38.435Z,6.18
2023-03-17T13:06:46.391Z,6.93
2023-03-17T13:07:53.962Z,6.80
2023-03-17T13:08:55.753Z,6.25
2023-03-17T13:09:58.609Z,6.68
2023-03-17T13:11:27.764Z,7.28
2023-03-17T13:12:44.519Z,7.18
2023-03-17T13:14:08.665Z,6.72
2023-03-17T13:15:22.130Z,7.28
2023-03-17T13:16:41.248Z,6.65
2023-03-17T13:17:42.874Z,7.15
2023-03-17T13:18:49.530Z,6.90
2023-03-17T13:20:09.996Z,6.65
2023-03-17T13:21:17.322Z,6.82
2023-03-17T13:22:21.901Z,6.22
2023-03-17T13:23:45.923Z,6.65
2023-03-17T13:24:49.386Z,6.13
2023-03-17T13:25:53.909Z,5.85
2023-03-17T13:26:57.141Z,6.88
2023-03-17T13:28:11.826Z,6.20
2023-03-17T13:29:32.363Z,6.32
2023-03-17T13:30:37.077Z,6.45
2023-03-17T13:31:39.463Z,6.45
2023-03-17T13:32:41.242Z,6.00
2023-03-17T13:33:50.092Z,6.25
2023-03-17T13:36:39.854Z,5.85
2023-03-17T13:37:53.429Z,7.10
2023-03-17T13:39:21.364Z,6.35
2023-03-17T13:40:35.809Z,6.63
2023-03-17T13:41:49.484Z,6.55
2023-03-17T13:43:06.078Z,6.05
2023-03-17T13:44:11.734Z,6.78
2023-03-17T13:45:16.427Z,7.72
2023-03-17T13:46:34.219Z,7.15
2023-03-17T13:47:42.159Z,7.10
2023-03-17T13:48:44.076Z,6.38
2023-03-17T13:49:51.596Z,6.18
2023-03-17T13:51:13.164Z,6.85
2023-03-17T13:52:21.955Z,6.90
2023-03-17T13:53:28.924Z,7.60
2023-03-17T13:54:40.805Z,6.97
2023-03-17T13:56:03.358Z,6.55
2023-03-17T13:57:29.778Z,7.20
2023-03-17T13:58:35.738Z,6.82
2023-03-17T13:59:40.475Z,7.10
2023-03-17T14:00:45.984Z,6.97
2023-03-17T14:01:50.007Z,6.80
2023-03-17T14:03:02.262Z,7.60
2023-03-17T14:04:07.104Z,8.00
2023-03-17T14:05:25.050Z,10.68
2023-03-17T14:06:31.449Z,7.13
2023-03-17T14:07:45.156Z,7.00
2023-03-17T14:08:52.258Z,7.10
2023-03-17T14:09:59.367Z,8.05
2023-03-17T14:11:04.206Z,6.30
2023-03-17T14:12:13.604Z,8.10
2023-03-17T14:14:00.437Z,7.88
2023-03-17T14:15:27.963Z,7.82
2023-03-17T14:16:36.454Z,8.10
2023-03-17T14:17:46.746Z,8.35
2023-03-17T14:18:52.282Z,6.63
2023-03-17T14:20:27.119Z,7.43
2023-03-17T14:21:33.858Z,7.28
2023-03-17T14:22:45.636Z,7.43
2023-03-17T14:23:59.044Z,7.15
2023-03-17T14:25:02.046Z,7.95
2023-03-17T14:26:04.317Z,8.23
2023-03-17T14:27:08.071Z,8.40
2023-03-17T14:28:14.233Z,8.10
2023-03-17T14:29:20.114Z,7.43
2023-03-17T14:30:28.758Z,7.85
2023-03-17T14:31:30.733Z,7.57
2023-03-17T14:32:32.331Z,7.53
2023-03-17T14:33:39.857Z,7.38
2023-03-17T14:34:54.514Z,6.90
2023-03-17T14:36:00.595Z,7.82
2023-03-17T14:37:04.399Z,7.15
2023-03-17T14:38:20.618Z,8.63
2023-03-17T14:39:24.946Z,7.40
2023-03-17T14:40:29.338Z,8.65
2023-03-17T14:41:34.738Z,7.43
2023-03-17T14:42:36.345Z,6.97
2023-03-17T14:43:38.001Z,7.85
2023-03-17T14:44:41.987Z,7.80